weather.gov     
National Weather Service

Terminal Aerodrome Forecast
NWS Homepage
This page is being discontinued on March 12, 2014.
The same data is available at this site. Please update your bookmarks.
Thank you, and we apologize for the inconvenience.
Please send an email to SR-SRH.Webmaster@noaa.gov with any concerns.


Current Version
Previous Version:    01  02  03  04  05  06  07  08  09  10  11  12  13  14  15  16  17  18  19  20  21  22  23  24  25  26  27  
[Printable]
808
FTUS44 KOUN 231721
TAFLAW
TAF
KLAW 231721Z 2318/2418 18020G28KT P6SM SKC
     FM240000 15019G27KT P6SM SCT060 BKN120
      TEMPO 2401/2404 VRB25G45KT 4SM TSRA BKN050CB
     FM240900 16017G22KT P6SM BKN025
     FM241300 34022G30KT P6SM BKN200=


808
FTUS44 KOUN 231721
TAFLAW
TAF
KLAW 231721Z 2318/2418 18020G28KT P6SM SKC
     FM240000 15019G27KT P6SM SCT060 BKN120
      TEMPO 2401/2404 VRB25G45KT 4SM TSRA BKN050CB
     FM240900 16017G22KT P6SM BKN025
     FM241300 34022G30KT P6SM BKN200=




U.S. Dept. of Commerce
NOAA National Weather Service
1325 East West Highway
Silver Spring, MD 20910
E-mail: w-nws.webmaster@noaa.gov
Page last modified: May 16, 2007
NATIONAL WEATHER SERVICE: for Safety, for Work, for Fun - FOR LIFE